createdAt,value
2016-10-19T19:30:55.878Z,20.90
2016-10-19T19:31:12.216Z,20.90
2016-10-19T19:32:15.289Z,20.90
2016-10-19T19:33:12.782Z,20.90
2016-10-19T19:34:12.811Z,20.90
2016-10-19T19:35:12.919Z,20.90
2016-10-19T19:36:13.230Z,20.90
2016-10-19T19:37:13.012Z,20.90
2016-10-19T19:38:12.782Z,20.90
2016-10-19T19:39:13.156Z,20.90
2016-10-19T19:40:12.610Z,20.90
2016-10-19T19:41:12.794Z,20.90
2016-10-19T19:42:10.315Z,20.90
2016-10-19T19:43:13.080Z,20.90
2016-10-19T19:44:12.734Z,20.90
2016-10-19T19:45:13.206Z,20.90
2016-10-19T19:46:12.744Z,20.90
2016-10-19T19:47:13.518Z,20.90
2016-10-19T19:48:13.026Z,21.00
2016-10-19T19:49:12.524Z,21.00
2016-10-19T19:50:10.445Z,21.00
2016-10-19T19:51:13.320Z,21.00
2016-10-19T19:52:12.267Z,21.00
2016-10-19T19:53:09.372Z,21.00
2016-10-19T19:54:12.851Z,20.90
2016-10-19T19:55:13.437Z,20.90
2016-10-19T19:56:12.777Z,20.90
2016-10-19T19:57:12.543Z,20.90
2016-10-19T19:58:13.472Z,20.90
2016-10-19T19:59:13.262Z,21.00
2016-10-19T20:00:12.838Z,21.00
2016-10-19T20:01:12.989Z,21.00
2016-10-19T20:02:13.426Z,21.00
2016-10-19T20:03:13.305Z,21.00
2016-10-19T20:04:13.996Z,21.00
2016-10-19T20:05:12.401Z,21.00
2016-10-19T20:06:12.242Z,21.00
2016-10-19T20:07:13.130Z,21.00
2016-10-19T20:08:12.744Z,21.00
2016-10-19T20:09:14.612Z,20.90
2016-10-19T20:10:13.444Z,20.90
2016-10-19T20:11:12.946Z,20.90
2016-10-19T20:12:14.041Z,20.90
2016-10-19T20:13:11.661Z,20.80
2016-10-19T20:14:13.456Z,20.80
2016-10-19T20:15:13.175Z,20.80
2016-10-19T20:16:12.664Z,20.80
2016-10-19T20:17:12.899Z,20.80
2016-10-19T20:18:13.153Z,20.80
2016-10-19T20:19:12.690Z,20.80
2016-10-19T20:20:12.112Z,20.80
2016-10-19T20:21:13.444Z,20.70
2016-10-19T20:22:15.585Z,20.70
2016-10-19T20:23:13.174Z,20.70
2016-10-19T20:24:12.875Z,20.70
2016-10-19T20:25:13.711Z,20.70
2016-10-19T20:26:12.745Z,20.70
2016-10-19T20:27:14.388Z,20.60
2016-10-19T20:28:13.657Z,20.60
2016-10-19T20:29:12.335Z,20.60
2016-10-19T20:30:12.506Z,20.60
2016-10-19T20:31:12.321Z,20.60
2016-10-19T20:32:12.290Z,20.60
2016-10-19T20:33:13.519Z,20.60
2016-10-19T20:34:13.032Z,20.60
2016-10-19T20:35:13.239Z,20.60
2016-10-19T20:36:11.090Z,20.60
2016-10-19T20:37:11.723Z,20.60
2016-10-19T20:38:13.795Z,20.60
2016-10-19T20:39:13.158Z,20.60
2016-10-19T20:40:13.387Z,20.50
2016-10-19T20:41:12.080Z,20.50
2016-10-19T20:42:12.690Z,20.50
2016-10-19T20:43:12.620Z,20.50
2016-10-19T20:44:12.690Z,20.50
2016-10-19T20:45:12.453Z,20.50
2016-10-19T20:46:12.164Z,20.50
2016-10-19T20:47:11.873Z,20.50
2016-10-19T20:48:10.203Z,20.50
2016-10-19T20:49:11.592Z,20.50
2016-10-19T20:50:11.972Z,20.50
2016-10-19T20:51:12.773Z,20.50
2016-10-19T20:52:12.543Z,20.50
2016-10-19T20:53:12.104Z,20.50
2016-10-19T20:54:11.251Z,20.50
2016-10-19T20:55:11.890Z,20.50
2016-10-19T20:56:13.674Z,20.50
2016-10-19T20:57:11.845Z,20.50
2016-10-19T20:58:12.662Z,20.50
2016-10-19T20:59:11.683Z,20.40
2016-10-19T21:00:11.792Z,20.40
2016-10-19T21:01:09.678Z,20.40
2016-10-19T21:02:11.868Z,20.40
2016-10-19T21:03:13.879Z,20.40
2016-10-19T21:04:12.447Z,20.40
2016-10-19T21:05:11.445Z,20.40
2016-10-19T21:06:11.503Z,20.40
2016-10-19T21:07:11.937Z,20.40
2016-10-19T21:08:11.410Z,20.40
2016-10-19T21:09:12.837Z,20.40
2016-10-19T21:10:13.897Z,20.40
2016-10-19T21:11:09.775Z,20.40
2016-10-19T21:12:13.114Z,20.40
2016-10-19T21:13:11.975Z,20.40
2016-10-19T21:14:12.454Z,20.40
2016-10-19T21:15:12.651Z,20.40
2016-10-19T21:16:13.885Z,20.40
2016-10-19T21:17:15.135Z,20.40
2016-10-19T21:18:11.737Z,20.40
2016-10-19T21:19:11.361Z,20.40
2016-10-19T21:20:11.417Z,20.40
2016-10-19T21:21:12.233Z,20.40
2016-10-19T21:22:12.565Z,20.40
2016-10-19T21:23:09.526Z,20.40
2016-10-19T21:24:14.051Z,20.40
2016-10-19T21:25:13.457Z,20.30
2016-10-19T21:26:11.822Z,20.40
2016-10-19T21:27:12.390Z,20.40
2016-10-19T21:28:11.944Z,20.30
2016-10-19T21:29:14.451Z,20.30
2016-10-19T21:30:12.445Z,20.40
2016-10-19T21:31:11.564Z,20.30
2016-10-19T21:32:12.382Z,20.30
2016-10-19T21:33:12.037Z,20.30
2016-10-19T21:34:13.222Z,20.30
2016-10-19T21:35:11.746Z,20.30
2016-10-19T21:36:13.044Z,20.30
2016-10-19T21:37:11.878Z,20.30
2016-10-19T21:38:12.221Z,20.30
2016-10-19T21:39:12.077Z,20.30
2016-10-19T21:40:12.192Z,20.30
2016-10-19T21:41:11.774Z,20.30
2016-10-19T21:42:11.962Z,20.30
2016-10-19T21:43:12.126Z,20.30
2016-10-19T21:44:12.101Z,20.30
2016-10-19T21:45:11.615Z,20.30
2016-10-19T21:46:12.029Z,20.30
2016-10-19T21:47:12.015Z,20.30
2016-10-19T21:48:11.717Z,20.30
2016-10-19T21:49:11.689Z,20.30
2016-10-19T21:50:15.082Z,20.30
2016-10-19T21:51:13.383Z,20.30
2016-10-19T21:52:11.725Z,20.30
2016-10-19T21:53:12.047Z,20.30
2016-10-19T21:54:12.908Z,20.30
2016-10-19T21:55:11.087Z,20.30
2016-10-19T21:56:11.694Z,20.30
2016-10-19T21:57:12.627Z,20.30
2016-10-19T21:58:11.688Z,20.30
2016-10-19T21:59:09.958Z,20.30
2016-10-19T22:00:12.933Z,20.30
2016-10-19T22:01:12.646Z,20.30
2016-10-19T22:02:12.412Z,20.30
2016-10-19T22:03:13.630Z,20.30
2016-10-19T22:04:12.650Z,20.30
2016-10-19T22:05:13.418Z,20.30
2016-10-19T22:06:12.042Z,20.30
2016-10-19T22:07:13.424Z,20.30
2016-10-19T22:08:11.341Z,20.30
2016-10-19T22:09:12.803Z,20.30
2016-10-19T22:10:11.928Z,20.30
2016-10-19T22:11:11.542Z,20.30
2016-10-19T22:12:14.294Z,20.30
2016-10-19T22:13:11.723Z,20.30
2016-10-19T22:14:12.658Z,20.30
2016-10-19T22:15:11.119Z,20.30
2016-10-19T22:16:13.375Z,20.30
2016-10-19T22:17:12.016Z,20.30
2016-10-19T22:18:11.654Z,20.30
2016-10-19T22:19:13.212Z,20.30
2016-10-19T22:20:13.837Z,20.30
2016-10-19T22:21:12.355Z,20.30
2016-10-19T22:22:12.871Z,20.30
2016-10-19T22:23:13.931Z,20.30
2016-10-19T22:24:12.418Z,20.30
2016-10-19T22:25:11.590Z,20.30
2016-10-19T22:26:12.030Z,20.30
2016-10-19T22:27:12.457Z,20.30
2016-10-19T22:28:12.459Z,20.30
2016-10-19T22:29:09.375Z,20.30
2016-10-19T22:30:11.994Z,20.30
2016-10-19T22:31:14.882Z,20.30
2016-10-19T22:32:12.988Z,20.30
2016-10-19T22:33:12.295Z,20.30
2016-10-19T22:34:13.681Z,20.30
2016-10-19T22:35:12.256Z,20.30
2016-10-19T22:36:13.170Z,20.30
2016-10-19T22:37:08.589Z,20.30
2016-10-19T22:38:13.406Z,20.30
2016-10-19T22:39:12.103Z,20.30
2016-10-19T22:40:11.088Z,20.30
2016-10-19T22:41:12.276Z,20.30
2016-10-19T22:42:12.191Z,20.30
2016-10-19T22:43:12.498Z,20.30
2016-10-19T22:44:12.037Z,20.30
2016-10-19T22:45:12.260Z,20.30
2016-10-19T22:46:12.066Z,20.30
2016-10-19T22:47:11.119Z,20.30
2016-10-19T22:48:13.014Z,20.30
2016-10-19T22:49:11.651Z,20.30
2016-10-19T22:50:12.715Z,20.30
2016-10-19T22:51:11.929Z,20.30
2016-10-19T22:52:11.932Z,20.30
2016-10-19T22:53:11.407Z,20.30
2016-10-19T22:54:12.398Z,20.30
2016-10-19T22:55:11.598Z,20.30
2016-10-19T22:56:15.202Z,20.30
2016-10-19T22:57:12.036Z,20.30
2016-10-19T22:58:12.292Z,20.30
2016-10-19T22:59:12.523Z,20.30
2016-10-19T23:00:11.895Z,20.30
2016-10-19T23:01:11.218Z,20.30
2016-10-19T23:02:12.010Z,20.30
2016-10-19T23:03:09.605Z,20.30
2016-10-19T23:04:09.576Z,20.30
2016-10-19T23:05:11.289Z,20.30
2016-10-19T23:06:11.383Z,20.30
2016-10-19T23:07:12.135Z,20.30
2016-10-19T23:08:11.490Z,20.30
2016-10-19T23:09:12.827Z,20.30
2016-10-19T23:10:11.858Z,20.30
2016-10-19T23:11:13.162Z,20.30
2016-10-19T23:12:11.169Z,20.30
2016-10-19T23:13:12.325Z,20.30
2016-10-19T23:14:11.349Z,20.30
2016-10-19T23:15:09.470Z,20.30
2016-10-19T23:16:11.719Z,20.30
2016-10-19T23:17:12.004Z,20.30
2016-10-19T23:18:11.019Z,20.30
2016-10-19T23:19:11.078Z,20.30
2016-10-19T23:20:12.932Z,20.30
2016-10-19T23:21:12.671Z,20.30
2016-10-19T23:22:12.879Z,20.30
2016-10-19T23:23:12.854Z,20.30
2016-10-19T23:24:13.087Z,20.30
2016-10-19T23:25:11.571Z,20.30
2016-10-19T23:26:11.717Z,20.30
2016-10-19T23:27:11.920Z,20.30
2016-10-19T23:28:12.020Z,20.30
2016-10-19T23:29:11.753Z,20.30
2016-10-19T23:30:14.262Z,20.30
2016-10-19T23:31:12.008Z,20.30
2016-10-19T23:32:11.667Z,20.30
2016-10-19T23:33:11.574Z,20.30
2016-10-19T23:34:12.440Z,20.30
2016-10-19T23:35:09.875Z,20.30
2016-10-19T23:36:12.139Z,20.30
2016-10-19T23:37:12.572Z,20.30
2016-10-19T23:38:11.740Z,20.30
2016-10-19T23:39:11.608Z,20.30
2016-10-19T23:40:11.636Z,20.30
2016-10-19T23:41:12.350Z,20.30
2016-10-19T23:42:08.669Z,20.30
2016-10-19T23:43:12.323Z,20.30
2016-10-19T23:44:09.501Z,20.30
2016-10-19T23:45:11.921Z,20.30
2016-10-19T23:46:11.474Z,20.30
2016-10-19T23:47:11.286Z,20.30
2016-10-19T23:48:11.317Z,20.30
2016-10-19T23:49:12.183Z,20.30
2016-10-19T23:50:11.845Z,20.30
2016-10-19T23:51:11.846Z,20.30
2016-10-19T23:52:12.445Z,20.30
2016-10-19T23:53:11.527Z,20.30
2016-10-19T23:54:11.864Z,20.30
2016-10-19T23:55:11.566Z,20.30
2016-10-19T23:56:11.471Z,20.30
2016-10-19T23:57:11.464Z,20.30
2016-10-19T23:58:12.359Z,20.30
2016-10-19T23:59:09.885Z,20.30
